Lance — LGKI — position and weather

sailwx.info

Track history (hours):
 
Tides and Currents Weather Stations Pressure Air Temp Water Temp Dewpoint Dewpoint Depression Visibility Wind Speed Wind Dir Waves Ship Positions

Oceanographic research ship Lance (Norway)

Detailed information on ship capabilities available from University of Delaware's Ocean Information Center and ARCUS's ALIAS (Arctic Logistics Information and Support) project.

Last reported at 2019-Jan-22 17:37 UTC. Time now 2019-Feb-23 16:47 UTC.
Position N 64°29' W 013°27'.
Warning: this ship's position is 31 days out of date.

Type: Ship. MMSI: 258236000.

Date/timePositionNaut miles runAvg speedWind from/ knotsBaromVisibWave heightAir tempDewpointWater temp
2019-Jan-22 17:37N 64°29' W 013°27'1810.4
2019-Jan-22 15:51N 64°39' W 012°52'410.0
2019-Jan-22 15:30N 64°41' W 012°45'510.3
2019-Jan-22 15:01N 64°44' W 012°36'610.0
2019-Jan-22 14:22N 64°48' W 012°23'4 9.8
2019-Jan-22 14:00N 64°50' W 012°17'  
2019-Jan-19 17:07N 68°27' E 010°00'1 8.5
2019-Jan-19 16:59N 68°27' E 010°03'4 8.4
2019-Jan-19 16:29N 68°29' E 010°14'5 9.0
2019-Jan-19 15:54N 68°31' E 010°26'3 8.8
2019-Jan-19 15:30N 68°33' E 010°34'4 8.4
2019-Jan-19 14:59N 68°35' E 010°45'4 8.7
2019-Jan-19 14:30N 68°37' E 010°55'4 8.5
2019-Jan-19 14:01N 68°39' E 011°05'4 8.7
2019-Jan-19 13:30N 68°41' E 011°16'5 9.0
2019-Jan-19 13:00N 68°43' E 011°28'5 9.5
2019-Jan-19 12:30N 68°44' E 011°40'5 9.8
2019-Jan-19 12:00N 68°46' E 011°53'510.1
2019-Jan-19 11:30N 68°48' E 012°06'510.4
2019-Jan-19 11:00N 68°50' E 012°18'510.6
2019-Jan-19 10:30N 68°53' E 012°30'510.4
2019-Jan-19 10:00N 68°56' E 012°43'510.4
2019-Jan-19 09:30N 68°57' E 012°57'5 9.5
2019-Jan-19 09:00N 68°59' E 013°09'5 9.9
2019-Jan-19 08:30N 69°01' E 013°22'510.1
2019-Jan-19 08:00N 69°03' E 013°35'5 9.9
2019-Jan-19 07:30N 69°05' E 013°47'5 9.9
2019-Jan-19 07:00N 69°07' E 013°60'5 9.8
2019-Jan-19 06:30N 69°09' E 014°12'510.0
2019-Jan-19 06:00N 69°11' E 014°25'5 9.9
2019-Jan-19 05:30N 69°13' E 014°38'510.0
2019-Jan-19 04:59N 69°15' E 014°51'510.0
2019-Jan-19 04:30N 69°17' E 015°04'5 9.7
2019-Jan-19 04:00N 69°19' E 015°16'5 9.2
2019-Jan-19 03:30N 69°21' E 015°28'5 9.6
2019-Jan-19 03:00N 69°23' E 015°40'5 9.2
2019-Jan-19 02:30N 69°25' E 015°52'4 8.7
2019-Jan-19 02:00N 69°26' E 016°04'5 9.1
2019-Jan-19 01:30N 69°29' E 016°15'4 9.2
2019-Jan-19 01:01N 69°30' E 016°27'5 9.6
2019-Jan-19 00:30N 69°32' E 016°40'5 9.7
2019-Jan-19 00:00N 69°34' E 016°53'5 9.8
2019-Jan-18 23:30N 69°36' E 017°06'5 9.6
2019-Jan-18 22:59N 69°38' E 017°19'510.0
2019-Jan-18 22:31N 69°39' E 017°33'5 9.6
2019-Jan-18 22:00N 69°38' E 017°47'510.8
2019-Jan-18 21:31N 69°34' E 017°57'610.9
2019-Jan-18 21:00N 69°31' E 018°09'510.4
2019-Jan-18 20:30N 69°31' E 018°24'5 9.4
2019-Jan-18 20:00N 69°33' E 018°37'4 7.6
2019-Jan-18 19:30N 69°34' E 018°47'5 9.2
2019-Jan-18 19:00N 69°37' E 018°56'2 3.4
2019-Jan-18 18:28N 69°39' E 018°59'0 0.0
2019-Jan-18 17:58N 69°39' E 018°59'0 0.0
2019-Jan-18 17:28N 69°39' E 018°59'0 0.0
2019-Jan-18 16:58N 69°39' E 018°59'0 0.0
2019-Jan-18 16:28N 69°39' E 018°59'0 0.0
2019-Jan-18 15:58N 69°39' E 018°59'0 0.0
2019-Jan-18 15:28N 69°39' E 018°59'0 0.0
2019-Jan-18 14:58N 69°39' E 018°59'0 0.0
2019-Jan-18 14:28N 69°39' E 018°59'0 0.0
2019-Jan-18 13:58N 69°39' E 018°59'0 0.0
2019-Jan-18 13:28N 69°39' E 018°59'0 0.0
2019-Jan-18 12:58N 69°39' E 018°59'0 0.0
2019-Jan-18 12:28N 69°39' E 018°59'0 0.0
2019-Jan-18 11:58N 69°39' E 018°59'0 0.0
2019-Jan-18 11:28N 69°39' E 018°59'0 0.0
2019-Jan-18 10:58N 69°39' E 018°59'0 0.0
2019-Jan-18 10:28N 69°39' E 018°59'0 0.0
2019-Jan-18 09:58N 69°39' E 018°59'0 0.0
2019-Jan-18 09:28N 69°39' E 018°59'0 0.0
2019-Jan-18 08:58N 69°39' E 018°59'0 0.0
2019-Jan-18 08:28N 69°39' E 018°59'0 0.0
2019-Jan-18 07:58N 69°39' E 018°59'0 0.0
2019-Jan-18 07:28N 69°39' E 018°59'0 0.0
2019-Jan-18 06:58N 69°39' E 018°59'0 0.0
2019-Jan-18 06:28N 69°39' E 018°59'0 0.0
2019-Jan-18 05:58N 69°39' E 018°59'0 0.0
2019-Jan-18 05:28N 69°39' E 018°59'0 0.0
2019-Jan-18 04:58N 69°39' E 018°59'0 0.0
2019-Jan-18 04:28N 69°39' E 018°59'0 0.0
2019-Jan-18 03:58N 69°39' E 018°59'0 0.0
2019-Jan-18 03:28N 69°39' E 018°59'0 0.0
2019-Jan-18 02:58N 69°39' E 018°59'0 0.0
2019-Jan-18 02:28N 69°39' E 018°59'0 0.0
2019-Jan-18 01:58N 69°39' E 018°59'0 0.0
2019-Jan-18 01:28N 69°39' E 018°59'0 0.0
2019-Jan-18 00:58N 69°39' E 018°59'0 0.0
2019-Jan-18 00:28N 69°39' E 018°59'0 0.0
2019-Jan-17 23:58N 69°39' E 018°59'0 0.0
2019-Jan-17 23:28N 69°39' E 018°59'0 0.0
2019-Jan-17 22:58N 69°39' E 018°59'0 0.0
2019-Jan-17 22:28N 69°39' E 018°59'0 0.0
2019-Jan-17 21:58N 69°39' E 018°59'0 0.0
2019-Jan-17 21:28N 69°39' E 018°59'0 0.0
2019-Jan-17 20:58N 69°39' E 018°59'0 0.0
2019-Jan-17 20:28N 69°39' E 018°59'0 0.0
2019-Jan-17 19:58N 69°39' E 018°59'0 0.0
2019-Jan-17 19:28N 69°39' E 018°59'0 0.0
2019-Jan-17 18:58N 69°39' E 018°59'0 0.0
2019-Jan-17 18:28N 69°39' E 018°59'0 0.0
2019-Jan-17 17:58N 69°39' E 018°59'0 0.0
2019-Jan-17 17:28N 69°39' E 018°59'0 0.0
2019-Jan-17 16:55N 69°39' E 018°59'0 0.0
2019-Jan-17 16:28N 69°39' E 018°59'0 0.0
2019-Jan-17 15:58N 69°39' E 018°59'0 0.0
2019-Jan-17 15:28N 69°39' E 018°59'0 0.0
2019-Jan-17 14:58N 69°39' E 018°59'0 0.0
2019-Jan-17 14:28N 69°39' E 018°59'0 0.0
2019-Jan-17 13:58N 69°39' E 018°59'0 0.0
2019-Jan-17 13:28N 69°39' E 018°59'0 0.0
2019-Jan-17 12:58N 69°39' E 018°59'0 0.0
2019-Jan-17 12:28N 69°39' E 018°59'0 0.0
2019-Jan-17 11:58N 69°39' E 018°59'0 0.0
2019-Jan-17 11:28N 69°39' E 018°59'0 0.0
2019-Jan-17 10:58N 69°39' E 018°59'0 0.0
2019-Jan-17 10:28N 69°39' E 018°59'0 0.0
2019-Jan-17 09:58N 69°39' E 018°59'0 0.0
2019-Jan-17 09:28N 69°39' E 018°59'0 0.0
2019-Jan-17 08:58N 69°39' E 018°59'0 0.0
2019-Jan-17 08:28N 69°39' E 018°59'0 0.0
2019-Jan-17 07:58N 69°39' E 018°59'0 0.0
2019-Jan-17 07:28N 69°39' E 018°59'0 0.0
2019-Jan-17 06:58N 69°39' E 018°59'0 0.0
2019-Jan-17 06:28N 69°39' E 018°59'0 0.0
2019-Jan-17 05:58N 69°39' E 018°59'0 0.0
2019-Jan-17 05:28N 69°39' E 018°59'0 0.0
2019-Jan-17 04:58N 69°39' E 018°59'0 0.0
2019-Jan-17 04:28N 69°39' E 018°59'0 0.0
2019-Jan-17 03:58N 69°39' E 018°59'0 0.0
2019-Jan-17 03:28N 69°39' E 018°59'0 0.0
2019-Jan-17 02:28N 69°39' E 018°59'0 0.0
2019-Jan-17 01:58N 69°39' E 018°59'0 0.0
2019-Jan-17 01:28N 69°39' E 018°59'0 0.0
2019-Jan-17 00:58N 69°39' E 018°59'0 0.0
2019-Jan-17 00:28N 69°39' E 018°59'0 0.0
2019-Jan-16 23:58N 69°39' E 018°59'0 0.0
2019-Jan-16 23:28N 69°39' E 018°59'0 0.0
2019-Jan-16 22:58N 69°39' E 018°59'0 0.0
2019-Jan-16 22:28N 69°39' E 018°59'0 0.0
2019-Jan-16 21:58N 69°39' E 018°59'0 0.0
2019-Jan-16 21:28N 69°39' E 018°59'0 0.0
2019-Jan-16 20:58N 69°39' E 018°59'0 0.0
2019-Jan-16 20:28N 69°39' E 018°59'0 0.0
2019-Jan-16 19:58N 69°39' E 018°59'0 0.0
2019-Jan-16 19:28N 69°39' E 018°59'0 0.0
2019-Jan-16 18:58N 69°39' E 018°59'0 0.0
2019-Jan-16 18:28N 69°39' E 018°59'0 0.0
2019-Jan-16 17:58N 69°39' E 018°59'0 0.0
2019-Jan-16 17:28N 69°39' E 018°59'0 0.0
2019-Jan-16 16:58N 69°39' E 018°59'0 0.0
2019-Jan-16 16:28N 69°39' E 018°59'0 0.0
2019-Jan-16 15:58N 69°39' E 018°59'0 0.0
2019-Jan-16 15:28N 69°39' E 018°59'0 0.0
2019-Jan-16 14:58N 69°39' E 018°59'0 0.0
2019-Jan-16 14:28N 69°39' E 018°59'0 0.0
2019-Jan-16 13:58N 69°39' E 018°59'0 0.0
2019-Jan-16 13:28N 69°39' E 018°59'0 0.0
2019-Jan-16 12:58N 69°39' E 018°59'0 0.0
2019-Jan-16 12:28N 69°39' E 018°59'0 0.0
2019-Jan-16 11:58N 69°39' E 018°59'0 0.0
2019-Jan-16 11:28N 69°39' E 018°59'0 0.0
2019-Jan-16 10:58N 69°39' E 018°59'0 0.0
2019-Jan-16 10:28N 69°39' E 018°59'0 0.0
2019-Jan-16 09:58N 69°39' E 018°59'0 0.0
2019-Jan-16 09:28N 69°39' E 018°59'0 0.0
2019-Jan-16 08:58N 69°39' E 018°59'0 0.0
2019-Jan-16 08:28N 69°39' E 018°59'0 0.0
2019-Jan-16 07:58N 69°39' E 018°59'0 0.0
2019-Jan-16 07:28N 69°39' E 018°59'0 0.0
2019-Jan-16 06:58N 69°39' E 018°59'0 0.0
2019-Jan-16 06:28N 69°39' E 018°59'0 0.0
2019-Jan-16 05:58N 69°39' E 018°59'0 0.0
2019-Jan-16 05:28N 69°39' E 018°59'0 0.0
2019-Jan-16 04:55N 69°39' E 018°59'0 0.0
2019-Jan-16 04:28N 69°39' E 018°59'0 0.0
2019-Jan-16 03:58N 69°39' E 018°59'0 0.0
2019-Jan-16 03:28N 69°39' E 018°59'0 0.0
2019-Jan-16 02:58N 69°39' E 018°59'0 0.0
2019-Jan-16 02:28N 69°39' E 018°59'0 0.0
2019-Jan-16 01:58N 69°39' E 018°59'0 0.0
2019-Jan-16 01:28N 69°39' E 018°59'0 0.0
2019-Jan-16 00:58N 69°39' E 018°59'0 0.0
2019-Jan-16 00:28N 69°39' E 018°59'0 0.0
2019-Jan-15 23:58N 69°39' E 018°59'0 0.0
2019-Jan-15 23:28N 69°39' E 018°59'0 0.0
2019-Jan-15 22:58N 69°39' E 018°59'0 0.0
2019-Jan-15 22:28N 69°39' E 018°59'0 0.0
2019-Jan-15 21:58N 69°39' E 018°59'0 0.0
2019-Jan-15 21:28N 69°39' E 018°59'0 0.0
2019-Jan-15 20:58N 69°39' E 018°59'0 0.0
2019-Jan-15 20:28N 69°39' E 018°59'0 0.0
2019-Jan-15 19:58N 69°39' E 018°59'0 0.0
2019-Jan-15 19:28N 69°39' E 018°59'0 0.0
2019-Jan-15 18:58N 69°39' E 018°59'0 0.0
2019-Jan-15 18:28N 69°39' E 018°59'0 0.0
2019-Jan-15 17:58N 69°39' E 018°59'0 0.0
2019-Jan-15 17:28N 69°39' E 018°59'0 0.0
2019-Jan-15 16:58N 69°39' E 018°59'0 0.0
2019-Jan-15 16:28N 69°39' E 018°59'0 0.0
2019-Jan-15 15:58N 69°39' E 018°59'0 0.0
2019-Jan-15 15:28N 69°39' E 018°59'0 0.0
2019-Jan-15 14:58N 69°39' E 018°59'0 0.0
2019-Jan-15 14:28N 69°39' E 018°59'0 0.0
2019-Jan-15 13:58N 69°39' E 018°59'0 0.0
2019-Jan-15 13:28N 69°39' E 018°59'0 0.0
2019-Jan-15 12:58N 69°39' E 018°59'0 0.0
2019-Jan-15 12:28N 69°39' E 018°59'0 0.0
2019-Jan-15 11:58N 69°39' E 018°59'0 0.0
2019-Jan-15 11:28N 69°39' E 018°59'0 0.0
2019-Jan-15 10:58N 69°39' E 018°59'0 0.0
2019-Jan-15 10:28N 69°39' E 018°59'0 0.0
2019-Jan-15 09:58N 69°39' E 018°59'0 0.0
2019-Jan-15 09:28N 69°39' E 018°59'0 0.0
2019-Jan-15 08:58N 69°39' E 018°59'0 0.0
2019-Jan-15 08:28N 69°39' E 018°59'0 0.0
2019-Jan-15 07:58N 69°39' E 018°59'0 0.0
2019-Jan-15 07:28N 69°39' E 018°59'0 0.0
2019-Jan-15 06:58N 69°39' E 018°59'0 0.0
2019-Jan-15 06:28N 69°39' E 018°59'0 0.0
2019-Jan-15 05:58N 69°39' E 018°59'0 0.0
2019-Jan-15 05:28N 69°39' E 018°59'0 0.0
2019-Jan-15 04:58N 69°39' E 018°59'0 0.0
2019-Jan-15 04:28N 69°39' E 018°59'0 0.0
2019-Jan-15 03:58N 69°39' E 018°59'0 0.0
2019-Jan-15 03:28N 69°39' E 018°59'0 0.0
2019-Jan-15 02:58N 69°39' E 018°59'0 0.0
2019-Jan-15 02:28N 69°39' E 018°59'0 0.0
2019-Jan-15 01:58N 69°39' E 018°59'0 0.0
2019-Jan-15 01:25N 69°39' E 018°59'0 0.0
2019-Jan-15 00:58N 69°39' E 018°59'0 0.0
2019-Jan-15 00:28N 69°39' E 018°59'0 0.0
2019-Jan-14 23:58N 69°39' E 018°59'0 0.0
2019-Jan-14 23:28N 69°39' E 018°59'0 0.0
2019-Jan-14 22:58N 69°39' E 018°59'0 0.0
2019-Jan-14 22:28N 69°39' E 018°59'0 0.0
2019-Jan-14 21:58N 69°39' E 018°59'0 0.0
2019-Jan-14 21:28N 69°39' E 018°59'0 0.0
2019-Jan-14 20:58N 69°39' E 018°59'0 0.0
2019-Jan-14 20:28N 69°39' E 018°59'0 0.0
2019-Jan-14 19:58N 69°39' E 018°59'0 0.0
2019-Jan-14 19:28N 69°39' E 018°59'0 0.0
2019-Jan-14 18:55N 69°39' E 018°59'0 0.0
2019-Jan-14 18:28N 69°39' E 018°59'0 0.0
2019-Jan-14 17:58N 69°39' E 018°59'0 0.0
2019-Jan-14 17:28N 69°39' E 018°59'0 0.0
2019-Jan-14 16:58N 69°39' E 018°59'0 0.0
2019-Jan-14 16:28N 69°39' E 018°59'0 0.0
2019-Jan-14 15:58N 69°39' E 018°59'0 0.0
2019-Jan-14 15:28N 69°39' E 018°59'0 0.0
2019-Jan-14 14:58N 69°39' E 018°59'0 0.0
2019-Jan-14 14:28N 69°39' E 018°59'0 0.0
2019-Jan-14 13:58N 69°39' E 018°59'0 0.0
2019-Jan-14 13:28N 69°39' E 018°59'0 0.0
2019-Jan-14 12:58N 69°39' E 018°59'0 0.0
2019-Jan-14 12:28N 69°39' E 018°59'0 0.0
2019-Jan-14 11:58N 69°39' E 018°59'0 0.0
2019-Jan-14 11:28N 69°39' E 018°59'0 0.0
2019-Jan-14 10:58N 69°39' E 018°59'0 0.0
2019-Jan-14 10:28N 69°39' E 018°59'0 0.0
2019-Jan-14 09:58N 69°39' E 018°59'0 0.0
2019-Jan-14 09:28N 69°39' E 018°59'0 0.0
2019-Jan-14 08:58N 69°39' E 018°59'0 0.0
2019-Jan-14 08:28N 69°39' E 018°59'0 0.0
2019-Jan-14 07:58N 69°39' E 018°59'0 0.0
2019-Jan-14 07:28N 69°39' E 018°59'0 0.0
2019-Jan-14 06:58N 69°39' E 018°59'0 0.0
2019-Jan-14 06:28N 69°39' E 018°59'0 0.0
2019-Jan-14 05:58N 69°39' E 018°59'0 0.0
2019-Jan-14 05:28N 69°39' E 018°59'0 0.0
2019-Jan-14 04:58N 69°39' E 018°59'0 0.0
2019-Jan-14 04:28N 69°39' E 018°59'0 0.0
2019-Jan-14 03:58N 69°39' E 018°59'0 0.0
2019-Jan-14 03:28N 69°39' E 018°59'0 0.0
2019-Jan-14 02:58N 69°39' E 018°59'0 0.0
2019-Jan-14 02:28N 69°39' E 018°59'0 0.0
2019-Jan-14 01:58N 69°39' E 018°59'0 0.0
2019-Jan-14 01:28N 69°39' E 018°59'0 0.0
2019-Jan-14 00:58N 69°39' E 018°59'0 0.0
2019-Jan-14 00:28N 69°39' E 018°59'0 0.0
2019-Jan-13 23:58N 69°39' E 018°59'0 0.0
2019-Jan-13 23:28N 69°39' E 018°59'0 0.0
2019-Jan-13 22:58N 69°39' E 018°59'0 0.0
2019-Jan-13 22:28N 69°39' E 018°59'0 0.0
2019-Jan-13 21:58N 69°39' E 018°59'0 0.0
2019-Jan-13 21:28N 69°39' E 018°59'0 0.0
2019-Jan-13 20:58N 69°39' E 018°59'0 0.0
2019-Jan-13 20:28N 69°39' E 018°59'0 0.0
2019-Jan-13 19:58N 69°39' E 018°59'0 0.0
2019-Jan-13 19:28N 69°39' E 018°59'0 0.0
2019-Jan-13 18:58N 69°39' E 018°59'0 0.0
2019-Jan-13 18:28N 69°39' E 018°59'0 0.0
2019-Jan-13 17:58N 69°39' E 018°59'0 0.0
2019-Jan-13 17:28N 69°39' E 018°59'0 0.0
2019-Jan-13 16:58N 69°39' E 018°59'0 0.0
2019-Jan-13 16:28N 69°39' E 018°59'0 0.0
2019-Jan-13 15:58N 69°39' E 018°59'0 0.0
2019-Jan-13 15:28N 69°39' E 018°59'0 0.0
2019-Jan-13 14:58N 69°39' E 018°59'0 0.0
2019-Jan-13 14:28N 69°39' E 018°59'0 0.0
2019-Jan-13 13:58N 69°39' E 018°59'0 0.0
2019-Jan-13 13:28N 69°39' E 018°59'0 0.0
2019-Jan-13 12:58N 69°39' E 018°59'0 0.0
2019-Jan-13 12:28N 69°39' E 018°59'0 0.0
2019-Jan-13 11:58N 69°39' E 018°59'0 0.0
2019-Jan-13 11:28N 69°39' E 018°59'0 0.0
2019-Jan-13 10:58N 69°39' E 018°59'0 0.0
2019-Jan-13 10:25N 69°39' E 018°59'0 0.0
2019-Jan-13 09:58N 69°39' E 018°59'0 0.0
2019-Jan-13 09:28N 69°39' E 018°59'0 0.0
2019-Jan-13 08:58N 69°39' E 018°59'0 0.0
2019-Jan-13 08:28N 69°39' E 018°59'0 0.0
2019-Jan-13 07:58N 69°39' E 018°59'0 0.0
2019-Jan-13 07:28N 69°39' E 018°59'0 0.0
2019-Jan-13 06:58N 69°39' E 018°59'0 0.0
2019-Jan-13 06:28N 69°39' E 018°59'0 0.0
2019-Jan-13 05:58N 69°39' E 018°59'0 0.0
2019-Jan-13 05:28N 69°39' E 018°59'0 0.0
2019-Jan-13 04:58N 69°39' E 018°59'0 0.0
2019-Jan-13 04:28N 69°39' E 018°59'0 0.0
2019-Jan-13 03:58N 69°39' E 018°59'0 0.0
2019-Jan-13 03:28N 69°39' E 018°59'0 0.0
2019-Jan-13 02:58N 69°39' E 018°59'0 0.0
2019-Jan-13 02:28N 69°39' E 018°59'0 0.0
2019-Jan-13 01:58N 69°39' E 018°59'0 0.0
2019-Jan-13 01:28N 69°39' E 018°59'0 0.0
2019-Jan-13 00:58N 69°39' E 018°59'0 0.0
2019-Jan-13 00:28N 69°39' E 018°59'0 0.0
2019-Jan-12 23:58N 69°39' E 018°59'0 0.0
2019-Jan-12 23:28N 69°39' E 018°59'0 0.0
2019-Jan-12 22:58N 69°39' E 018°59'0 0.0
2019-Jan-12 22:28N 69°39' E 018°59'0 0.0
2019-Jan-12 21:58N 69°39' E 018°59'0 0.0
2019-Jan-12 21:28N 69°39' E 018°59'0 0.0
2019-Jan-12 20:58N 69°39' E 018°59'0 0.0
2019-Jan-12 20:28N 69°39' E 018°59'0 0.0
2019-Jan-12 19:58N 69°39' E 018°59'0 0.0
2019-Jan-12 19:28N 69°39' E 018°59'0 0.0
2019-Jan-12 18:58N 69°39' E 018°59'0 0.0
2019-Jan-12 18:28N 69°39' E 018°59'0 0.0
2019-Jan-12 17:58N 69°39' E 018°59'  
Track history (hours):
 
Tides and Currents Weather Stations Pressure Air Temp Water Temp Dewpoint Dewpoint Depression Visibility Wind Speed Wind Dir Waves Ship Positions

Oceanographic research ship Lance (Norway)

Detailed information on ship capabilities available from University of Delaware's Ocean Information Center and ARCUS's ALIAS (Arctic Logistics Information and Support) project.

Last reported at 2019-Jan-22 17:37 UTC. Time now 2019-Feb-23 16:47 UTC.
Position N 64°29' W 013°27'.
Warning: this ship's position is 31 days out of date.

Type: Ship. MMSI: 258236000.

Date/timePositionNaut miles runAvg speedWind from/ knotsBaromVisibWave heightAir tempDewpointWater temp
2019-Jan-22 17:37N 64°29' W 013°27'1810.4
2019-Jan-22 15:51N 64°39' W 012°52'410.0
2019-Jan-22 15:30N 64°41' W 012°45'510.3
2019-Jan-22 15:01N 64°44' W 012°36'610.0
2019-Jan-22 14:22N 64°48' W 012°23'4 9.8
2019-Jan-22 14:00N 64°50' W 012°17'  
2019-Jan-19 17:07N 68°27' E 010°00'1 8.5
2019-Jan-19 16:59N 68°27' E 010°03'4 8.4
2019-Jan-19 16:29N 68°29' E 010°14'5 9.0
2019-Jan-19 15:54N 68°31' E 010°26'3 8.8
2019-Jan-19 15:30N 68°33' E 010°34'4 8.4
2019-Jan-19 14:59N 68°35' E 010°45'4 8.7
2019-Jan-19 14:30N 68°37' E 010°55'4 8.5
2019-Jan-19 14:01N 68°39' E 011°05'4 8.7
2019-Jan-19 13:30N 68°41' E 011°16'5 9.0
2019-Jan-19 13:00N 68°43' E 011°28'5 9.5
2019-Jan-19 12:30N 68°44' E 011°40'5 9.8
2019-Jan-19 12:00N 68°46' E 011°53'510.1
2019-Jan-19 11:30N 68°48' E 012°06'510.4
2019-Jan-19 11:00N 68°50' E 012°18'510.6
2019-Jan-19 10:30N 68°53' E 012°30'510.4
2019-Jan-19 10:00N 68°56' E 012°43'510.4
2019-Jan-19 09:30N 68°57' E 012°57'5 9.5
2019-Jan-19 09:00N 68°59' E 013°09'5 9.9
2019-Jan-19 08:30N 69°01' E 013°22'510.1
2019-Jan-19 08:00N 69°03' E 013°35'5 9.9
2019-Jan-19 07:30N 69°05' E 013°47'5 9.9
2019-Jan-19 07:00N 69°07' E 013°60'5 9.8
2019-Jan-19 06:30N 69°09' E 014°12'510.0
2019-Jan-19 06:00N 69°11' E 014°25'5 9.9
2019-Jan-19 05:30N 69°13' E 014°38'510.0
2019-Jan-19 04:59N 69°15' E 014°51'510.0
2019-Jan-19 04:30N 69°17' E 015°04'5 9.7
2019-Jan-19 04:00N 69°19' E 015°16'5 9.2
2019-Jan-19 03:30N 69°21' E 015°28'5 9.6
2019-Jan-19 03:00N 69°23' E 015°40'5 9.2
2019-Jan-19 02:30N 69°25' E 015°52'4 8.7
2019-Jan-19 02:00N 69°26' E 016°04'5 9.1
2019-Jan-19 01:30N 69°29' E 016°15'4 9.2
2019-Jan-19 01:01N 69°30' E 016°27'5 9.6
2019-Jan-19 00:30N 69°32' E 016°40'5 9.7
2019-Jan-19 00:00N 69°34' E 016°53'5 9.8
2019-Jan-18 23:30N 69°36' E 017°06'5 9.6
2019-Jan-18 22:59N 69°38' E 017°19'510.0
2019-Jan-18 22:31N 69°39' E 017°33'5 9.6
2019-Jan-18 22:00N 69°38' E 017°47'510.8
2019-Jan-18 21:31N 69°34' E 017°57'610.9
2019-Jan-18 21:00N 69°31' E 018°09'510.4
2019-Jan-18 20:30N 69°31' E 018°24'5 9.4
2019-Jan-18 20:00N 69°33' E 018°37'4 7.6
2019-Jan-18 19:30N 69°34' E 018°47'5 9.2
2019-Jan-18 19:00N 69°37' E 018°56'2 3.4
2019-Jan-18 18:28N 69°39' E 018°59'0 0.0
2019-Jan-18 17:58N 69°39' E 018°59'0 0.0
2019-Jan-18 17:28N 69°39' E 018°59'0 0.0
2019-Jan-18 16:58N 69°39' E 018°59'0 0.0
2019-Jan-18 16:28N 69°39' E 018°59'0 0.0
2019-Jan-18 15:58N 69°39' E 018°59'0 0.0
2019-Jan-18 15:28N 69°39' E 018°59'0 0.0
2019-Jan-18 14:58N 69°39' E 018°59'0 0.0
2019-Jan-18 14:28N 69°39' E 018°59'0 0.0
2019-Jan-18 13:58N 69°39' E 018°59'0 0.0
2019-Jan-18 13:28N 69°39' E 018°59'0 0.0
2019-Jan-18 12:58N 69°39' E 018°59'0 0.0
2019-Jan-18 12:28N 69°39' E 018°59'0 0.0
2019-Jan-18 11:58N 69°39' E 018°59'0 0.0
2019-Jan-18 11:28N 69°39' E 018°59'0 0.0
2019-Jan-18 10:58N 69°39' E 018°59'0 0.0
2019-Jan-18 10:28N 69°39' E 018°59'0 0.0
2019-Jan-18 09:58N 69°39' E 018°59'0 0.0
2019-Jan-18 09:28N 69°39' E 018°59'0 0.0
2019-Jan-18 08:58N 69°39' E 018°59'0 0.0
2019-Jan-18 08:28N 69°39' E 018°59'0 0.0
2019-Jan-18 07:58N 69°39' E 018°59'0 0.0
2019-Jan-18 07:28N 69°39' E 018°59'0 0.0
2019-Jan-18 06:58N 69°39' E 018°59'0 0.0
2019-Jan-18 06:28N 69°39' E 018°59'0 0.0
2019-Jan-18 05:58N 69°39' E 018°59'0 0.0
2019-Jan-18 05:28N 69°39' E 018°59'0 0.0
2019-Jan-18 04:58N 69°39' E 018°59'0 0.0
2019-Jan-18 04:28N 69°39' E 018°59'0 0.0
2019-Jan-18 03:58N 69°39' E 018°59'0 0.0
2019-Jan-18 03:28N 69°39' E 018°59'0 0.0
2019-Jan-18 02:58N 69°39' E 018°59'0 0.0
2019-Jan-18 02:28N 69°39' E 018°59'0 0.0
2019-Jan-18 01:58N 69°39' E 018°59'0 0.0
2019-Jan-18 01:28N 69°39' E 018°59'0 0.0
2019-Jan-18 00:58N 69°39' E 018°59'0 0.0
2019-Jan-18 00:28N 69°39' E 018°59'0 0.0
2019-Jan-17 23:58N 69°39' E 018°59'0 0.0
2019-Jan-17 23:28N 69°39' E 018°59'0 0.0
2019-Jan-17 22:58N 69°39' E 018°59'0 0.0
2019-Jan-17 22:28N 69°39' E 018°59'0 0.0
2019-Jan-17 21:58N 69°39' E 018°59'0 0.0
2019-Jan-17 21:28N 69°39' E 018°59'0 0.0
2019-Jan-17 20:58N 69°39' E 018°59'0 0.0
2019-Jan-17 20:28N 69°39' E 018°59'0 0.0
2019-Jan-17 19:58N 69°39' E 018°59'0 0.0
2019-Jan-17 19:28N 69°39' E 018°59'0 0.0
2019-Jan-17 18:58N 69°39' E 018°59'0 0.0
2019-Jan-17 18:28N 69°39' E 018°59'0 0.0
2019-Jan-17 17:58N 69°39' E 018°59'0 0.0
2019-Jan-17 17:28N 69°39' E 018°59'0 0.0
2019-Jan-17 16:55N 69°39' E 018°59'0 0.0
2019-Jan-17 16:28N 69°39' E 018°59'0 0.0
2019-Jan-17 15:58N 69°39' E 018°59'0 0.0
2019-Jan-17 15:28N 69°39' E 018°59'0 0.0
2019-Jan-17 14:58N 69°39' E 018°59'0 0.0
2019-Jan-17 14:28N 69°39' E 018°59'0 0.0
2019-Jan-17 13:58N 69°39' E 018°59'0 0.0
2019-Jan-17 13:28N 69°39' E 018°59'0 0.0
2019-Jan-17 12:58N 69°39' E 018°59'0 0.0
2019-Jan-17 12:28N 69°39' E 018°59'0 0.0
2019-Jan-17 11:58N 69°39' E 018°59'0 0.0
2019-Jan-17 11:28N 69°39' E 018°59'0 0.0
2019-Jan-17 10:58N 69°39' E 018°59'0 0.0
2019-Jan-17 10:28N 69°39' E 018°59'0 0.0
2019-Jan-17 09:58N 69°39' E 018°59'0 0.0
2019-Jan-17 09:28N 69°39' E 018°59'0 0.0
2019-Jan-17 08:58N 69°39' E 018°59'0 0.0
2019-Jan-17 08:28N 69°39' E 018°59'0 0.0
2019-Jan-17 07:58N 69°39' E 018°59'0 0.0
2019-Jan-17 07:28N 69°39' E 018°59'0 0.0
2019-Jan-17 06:58N 69°39' E 018°59'0 0.0
2019-Jan-17 06:28N 69°39' E 018°59'0 0.0
2019-Jan-17 05:58N 69°39' E 018°59'0 0.0
2019-Jan-17 05:28N 69°39' E 018°59'0 0.0
2019-Jan-17 04:58N 69°39' E 018°59'0 0.0
2019-Jan-17 04:28N 69°39' E 018°59'0 0.0
2019-Jan-17 03:58N 69°39' E 018°59'0 0.0
2019-Jan-17 03:28N 69°39' E 018°59'0 0.0
2019-Jan-17 02:28N 69°39' E 018°59'0 0.0
2019-Jan-17 01:58N 69°39' E 018°59'0 0.0
2019-Jan-17 01:28N 69°39' E 018°59'0 0.0
2019-Jan-17 00:58N 69°39' E 018°59'0 0.0
2019-Jan-17 00:28N 69°39' E 018°59'0 0.0
2019-Jan-16 23:58N 69°39' E 018°59'0 0.0
2019-Jan-16 23:28N 69°39' E 018°59'0 0.0
2019-Jan-16 22:58N 69°39' E 018°59'0 0.0
2019-Jan-16 22:28N 69°39' E 018°59'0 0.0
2019-Jan-16 21:58N 69°39' E 018°59'0 0.0
2019-Jan-16 21:28N 69°39' E 018°59'0 0.0
2019-Jan-16 20:58N 69°39' E 018°59'0 0.0
2019-Jan-16 20:28N 69°39' E 018°59'0 0.0
2019-Jan-16 19:58N 69°39' E 018°59'0 0.0
2019-Jan-16 19:28N 69°39' E 018°59'0 0.0
2019-Jan-16 18:58N 69°39' E 018°59'0 0.0
2019-Jan-16 18:28N 69°39' E 018°59'0 0.0
2019-Jan-16 17:58N 69°39' E 018°59'0 0.0
2019-Jan-16 17:28N 69°39' E 018°59'0 0.0
2019-Jan-16 16:58N 69°39' E 018°59'0 0.0
2019-Jan-16 16:28N 69°39' E 018°59'0 0.0
2019-Jan-16 15:58N 69°39' E 018°59'0 0.0
2019-Jan-16 15:28N 69°39' E 018°59'0 0.0
2019-Jan-16 14:58N 69°39' E 018°59'0 0.0
2019-Jan-16 14:28N 69°39' E 018°59'0 0.0
2019-Jan-16 13:58N 69°39' E 018°59'0 0.0
2019-Jan-16 13:28N 69°39' E 018°59'0 0.0
2019-Jan-16 12:58N 69°39' E 018°59'0 0.0
2019-Jan-16 12:28N 69°39' E 018°59'0 0.0
2019-Jan-16 11:58N 69°39' E 018°59'0 0.0
2019-Jan-16 11:28N 69°39' E 018°59'0 0.0
2019-Jan-16 10:58N 69°39' E 018°59'0 0.0
2019-Jan-16 10:28N 69°39' E 018°59'0 0.0
2019-Jan-16 09:58N 69°39' E 018°59'0 0.0
2019-Jan-16 09:28N 69°39' E 018°59'0 0.0
2019-Jan-16 08:58N 69°39' E 018°59'0 0.0
2019-Jan-16 08:28N 69°39' E 018°59'0 0.0
2019-Jan-16 07:58N 69°39' E 018°59'0 0.0
2019-Jan-16 07:28N 69°39' E 018°59'0 0.0
2019-Jan-16 06:58N 69°39' E 018°59'0 0.0
2019-Jan-16 06:28N 69°39' E 018°59'0 0.0
2019-Jan-16 05:58N 69°39' E 018°59'0 0.0
2019-Jan-16 05:28N 69°39' E 018°59'0 0.0
2019-Jan-16 04:55N 69°39' E 018°59'0 0.0
2019-Jan-16 04:28N 69°39' E 018°59'0 0.0
2019-Jan-16 03:58N 69°39' E 018°59'0 0.0
2019-Jan-16 03:28N 69°39' E 018°59'0 0.0
2019-Jan-16 02:58N 69°39' E 018°59'0 0.0
2019-Jan-16 02:28N 69°39' E 018°59'0 0.0
2019-Jan-16 01:58N 69°39' E 018°59'0 0.0
2019-Jan-16 01:28N 69°39' E 018°59'0 0.0
2019-Jan-16 00:58N 69°39' E 018°59'0 0.0
2019-Jan-16 00:28N 69°39' E 018°59'0 0.0
2019-Jan-15 23:58N 69°39' E 018°59'0 0.0
2019-Jan-15 23:28N 69°39' E 018°59'0 0.0
2019-Jan-15 22:58N 69°39' E 018°59'0 0.0
2019-Jan-15 22:28N 69°39' E 018°59'0 0.0
2019-Jan-15 21:58N 69°39' E 018°59'0 0.0
2019-Jan-15 21:28N 69°39' E 018°59'0 0.0
2019-Jan-15 20:58N 69°39' E 018°59'0 0.0
2019-Jan-15 20:28N 69°39' E 018°59'0 0.0
2019-Jan-15 19:58N 69°39' E 018°59'0 0.0
2019-Jan-15 19:28N 69°39' E 018°59'0 0.0
2019-Jan-15 18:58N 69°39' E 018°59'0 0.0
2019-Jan-15 18:28N 69°39' E 018°59'0 0.0
2019-Jan-15 17:58N 69°39' E 018°59'0 0.0
2019-Jan-15 17:28N 69°39' E 018°59'0 0.0
2019-Jan-15 16:58N 69°39' E 018°59'0 0.0
2019-Jan-15 16:28N 69°39' E 018°59'0 0.0
2019-Jan-15 15:58N 69°39' E 018°59'0 0.0
2019-Jan-15 15:28N 69°39' E 018°59'0 0.0
2019-Jan-15 14:58N 69°39' E 018°59'0 0.0
2019-Jan-15 14:28N 69°39' E 018°59'0 0.0
2019-Jan-15 13:58N 69°39' E 018°59'0 0.0
2019-Jan-15 13:28N 69°39' E 018°59'0 0.0
2019-Jan-15 12:58N 69°39' E 018°59'0 0.0
2019-Jan-15 12:28N 69°39' E 018°59'0 0.0
2019-Jan-15 11:58N 69°39' E 018°59'0 0.0
2019-Jan-15 11:28N 69°39' E 018°59'0 0.0
2019-Jan-15 10:58N 69°39' E 018°59'0 0.0
2019-Jan-15 10:28N 69°39' E 018°59'0 0.0
2019-Jan-15 09:58N 69°39' E 018°59'0 0.0
2019-Jan-15 09:28N 69°39' E 018°59'0 0.0
2019-Jan-15 08:58N 69°39' E 018°59'0 0.0
2019-Jan-15 08:28N 69°39' E 018°59'0 0.0
2019-Jan-15 07:58N 69°39' E 018°59'0 0.0
2019-Jan-15 07:28N 69°39' E 018°59'0 0.0
2019-Jan-15 06:58N 69°39' E 018°59'0 0.0
2019-Jan-15 06:28N 69°39' E 018°59'0 0.0
2019-Jan-15 05:58N 69°39' E 018°59'0 0.0
2019-Jan-15 05:28N 69°39' E 018°59'0 0.0
2019-Jan-15 04:58N 69°39' E 018°59'0 0.0
2019-Jan-15 04:28N 69°39' E 018°59'0 0.0
2019-Jan-15 03:58N 69°39' E 018°59'0 0.0
2019-Jan-15 03:28N 69°39' E 018°59'0 0.0
2019-Jan-15 02:58N 69°39' E 018°59'0 0.0
2019-Jan-15 02:28N 69°39' E 018°59'0 0.0
2019-Jan-15 01:58N 69°39' E 018°59'0 0.0
2019-Jan-15 01:25N 69°39' E 018°59'0 0.0
2019-Jan-15 00:58N 69°39' E 018°59'0 0.0
2019-Jan-15 00:28N 69°39' E 018°59'0 0.0
2019-Jan-14 23:58N 69°39' E 018°59'0 0.0
2019-Jan-14 23:28N 69°39' E 018°59'0 0.0
2019-Jan-14 22:58N 69°39' E 018°59'0 0.0
2019-Jan-14 22:28N 69°39' E 018°59'0 0.0
2019-Jan-14 21:58N 69°39' E 018°59'0 0.0
2019-Jan-14 21:28N 69°39' E 018°59'0 0.0
2019-Jan-14 20:58N 69°39' E 018°59'0 0.0
2019-Jan-14 20:28N 69°39' E 018°59'0 0.0
2019-Jan-14 19:58N 69°39' E 018°59'0 0.0
2019-Jan-14 19:28N 69°39' E 018°59'0 0.0
2019-Jan-14 18:55N 69°39' E 018°59'0 0.0
2019-Jan-14 18:28N 69°39' E 018°59'0 0.0
2019-Jan-14 17:58N 69°39' E 018°59'0 0.0
2019-Jan-14 17:28N 69°39' E 018°59'0 0.0
2019-Jan-14 16:58N 69°39' E 018°59'0 0.0
2019-Jan-14 16:28N 69°39' E 018°59'0 0.0
2019-Jan-14 15:58N 69°39' E 018°59'0 0.0
2019-Jan-14 15:28N 69°39' E 018°59'0 0.0
2019-Jan-14 14:58N 69°39' E 018°59'0 0.0
2019-Jan-14 14:28N 69°39' E 018°59'0 0.0
2019-Jan-14 13:58N 69°39' E 018°59'0 0.0
2019-Jan-14 13:28N 69°39' E 018°59'0 0.0
2019-Jan-14 12:58N 69°39' E 018°59'0 0.0
2019-Jan-14 12:28N 69°39' E 018°59'0 0.0
2019-Jan-14 11:58N 69°39' E 018°59'0 0.0
2019-Jan-14 11:28N 69°39' E 018°59'0 0.0
2019-Jan-14 10:58N 69°39' E 018°59'0 0.0
2019-Jan-14 10:28N 69°39' E 018°59'0 0.0
2019-Jan-14 09:58N 69°39' E 018°59'0 0.0
2019-Jan-14 09:28N 69°39' E 018°59'0 0.0
2019-Jan-14 08:58N 69°39' E 018°59'0 0.0
2019-Jan-14 08:28N 69°39' E 018°59'0 0.0
2019-Jan-14 07:58N 69°39' E 018°59'0 0.0
2019-Jan-14 07:28N 69°39' E 018°59'0 0.0
2019-Jan-14 06:58N 69°39' E 018°59'0 0.0
2019-Jan-14 06:28N 69°39' E 018°59'0 0.0
2019-Jan-14 05:58N 69°39' E 018°59'0 0.0
2019-Jan-14 05:28N 69°39' E 018°59'0 0.0
2019-Jan-14 04:58N 69°39' E 018°59'0 0.0
2019-Jan-14 04:28N 69°39' E 018°59'0 0.0
2019-Jan-14 03:58N 69°39' E 018°59'0 0.0
2019-Jan-14 03:28N 69°39' E 018°59'0 0.0
2019-Jan-14 02:58N 69°39' E 018°59'0 0.0
2019-Jan-14 02:28N 69°39' E 018°59'0 0.0
2019-Jan-14 01:58N 69°39' E 018°59'0 0.0
2019-Jan-14 01:28N 69°39' E 018°59'0 0.0
2019-Jan-14 00:58N 69°39' E 018°59'0 0.0
2019-Jan-14 00:28N 69°39' E 018°59'0 0.0
2019-Jan-13 23:58N 69°39' E 018°59'0 0.0
2019-Jan-13 23:28N 69°39' E 018°59'0 0.0
2019-Jan-13 22:58N 69°39' E 018°59'0 0.0
2019-Jan-13 22:28N 69°39' E 018°59'0 0.0
2019-Jan-13 21:58N 69°39' E 018°59'0 0.0
2019-Jan-13 21:28N 69°39' E 018°59'0 0.0
2019-Jan-13 20:58N 69°39' E 018°59'0 0.0
2019-Jan-13 20:28N 69°39' E 018°59'0 0.0
2019-Jan-13 19:58N 69°39' E 018°59'0 0.0
2019-Jan-13 19:28N 69°39' E 018°59'0 0.0
2019-Jan-13 18:58N 69°39' E 018°59'0 0.0
2019-Jan-13 18:28N 69°39' E 018°59'0 0.0
2019-Jan-13 17:58N 69°39' E 018°59'0 0.0
2019-Jan-13 17:28N 69°39' E 018°59'0 0.0
2019-Jan-13 16:58N 69°39' E 018°59'0 0.0
2019-Jan-13 16:28N 69°39' E 018°59'0 0.0
2019-Jan-13 15:58N 69°39' E 018°59'0 0.0
2019-Jan-13 15:28N 69°39' E 018°59'0 0.0
2019-Jan-13 14:58N 69°39' E 018°59'0 0.0
2019-Jan-13 14:28N 69°39' E 018°59'0 0.0
2019-Jan-13 13:58N 69°39' E 018°59'0 0.0
2019-Jan-13 13:28N 69°39' E 018°59'0 0.0
2019-Jan-13 12:58N 69°39' E 018°59'0 0.0
2019-Jan-13 12:28N 69°39' E 018°59'0 0.0
2019-Jan-13 11:58N 69°39' E 018°59'0 0.0
2019-Jan-13 11:28N 69°39' E 018°59'0 0.0
2019-Jan-13 10:58N 69°39' E 018°59'0 0.0
2019-Jan-13 10:25N 69°39' E 018°59'0 0.0
2019-Jan-13 09:58N 69°39' E 018°59'0 0.0
2019-Jan-13 09:28N 69°39' E 018°59'0 0.0
2019-Jan-13 08:58N 69°39' E 018°59'0 0.0
2019-Jan-13 08:28N 69°39' E 018°59'0 0.0
2019-Jan-13 07:58N 69°39' E 018°59'0 0.0
2019-Jan-13 07:28N 69°39' E 018°59'0 0.0
2019-Jan-13 06:58N 69°39' E 018°59'0 0.0
2019-Jan-13 06:28N 69°39' E 018°59'0 0.0
2019-Jan-13 05:58N 69°39' E 018°59'0 0.0
2019-Jan-13 05:28N 69°39' E 018°59'0 0.0
2019-Jan-13 04:58N 69°39' E 018°59'0 0.0
2019-Jan-13 04:28N 69°39' E 018°59'0 0.0
2019-Jan-13 03:58N 69°39' E 018°59'0 0.0
2019-Jan-13 03:28N 69°39' E 018°59'0 0.0
2019-Jan-13 02:58N 69°39' E 018°59'0 0.0
2019-Jan-13 02:28N 69°39' E 018°59'0 0.0
2019-Jan-13 01:58N 69°39' E 018°59'0 0.0
2019-Jan-13 01:28N 69°39' E 018°59'0 0.0
2019-Jan-13 00:58N 69°39' E 018°59'0 0.0
2019-Jan-13 00:28N 69°39' E 018°59'0 0.0
2019-Jan-12 23:58N 69°39' E 018°59'0 0.0
2019-Jan-12 23:28N 69°39' E 018°59'0 0.0
2019-Jan-12 22:58N 69°39' E 018°59'0 0.0
2019-Jan-12 22:28N 69°39' E 018°59'0 0.0
2019-Jan-12 21:58N 69°39' E 018°59'0 0.0
2019-Jan-12 21:28N 69°39' E 018°59'0 0.0
2019-Jan-12 20:58N 69°39' E 018°59'0 0.0
2019-Jan-12 20:28N 69°39' E 018°59'0 0.0
2019-Jan-12 19:58N 69°39' E 018°59'0 0.0
2019-Jan-12 19:28N 69°39' E 018°59'0 0.0
2019-Jan-12 18:58N 69°39' E 018°59'0 0.0
2019-Jan-12 18:28N 69°39' E 018°59'0 0.0
2019-Jan-12 17:58N 69°39' E 018°59'  

Dump ship's entire track history